Time;durP1;ratioP1;P1;durP2;ratioP2;P2;SDS_P1;SDS_P2;PMS_P1;PMS_P2;Temp;Humidity;BMP_temperature;BMP_pressure;BME280_temperature;BME280_humidity;BME280_pressure;Samples;Min_cycle;Max_cycle;Signal;HPM_P1;HPM_P2
2021/06/14 00:00:09;;;;;;;5.03;3.20;;;16.20;55.70;15.50;102371.00;;;;5039261;28;20544;-69
2021/06/14 00:02:39;;;;;;;5.50;3.15;;;16.20;55.90;15.50;102378.00;;;;5042156;28;20051;-69
2021/06/14 00:05:08;;;;;;;5.22;3.10;;;16.20;55.80;15.40;102368.00;;;;5040770;28;20048;-69
2021/06/14 00:07:34;;;;;;;6.18;3.53;;;16.20;56.00;15.40;102363.00;;;;5039886;28;20508;-69
2021/06/14 00:10:00;;;;;;;5.30;3.50;;;16.20;56.20;15.40;102357.00;;;;5040697;28;20102;-70
2021/06/14 00:12:26;;;;;;;9.05;3.70;;;16.10;55.10;15.40;102364.00;;;;5039081;28;20139;-69
2021/06/14 00:14:53;;;;;;;5.28;3.38;;;16.10;56.10;15.30;102370.00;;;;5040850;28;20065;-69
2021/06/14 00:17:19;;;;;;;5.78;3.33;;;16.10;56.10;15.30;102364.00;;;;5041044;28;20040;-69
2021/06/14 00:19:48;;;;;;;9.75;3.67;;;16.00;56.00;15.30;102365.00;;;;5039183;28;20507;-69
2021/06/14 00:22:21;;;;;;;4.80;2.92;;;16.00;56.00;15.20;102361.00;;;;5041196;28;20060;-69
2021/06/14 00:24:47;;;;;;;8.05;4.00;;;16.00;56.30;15.20;102360.00;;;;5038302;28;20047;-69
2021/06/14 00:27:13;;;;;;;6.40;3.30;;;15.90;56.70;15.20;102347.00;;;;5039791;28;20041;-69
2021/06/14 00:29:40;;;;;;;5.22;2.92;;;15.90;56.90;15.10;102354.00;;;;5038224;28;20045;-69
2021/06/14 00:32:06;;;;;;;6.47;3.50;;;15.90;55.70;15.10;102351.00;;;;5036926;28;20053;-68
2021/06/14 00:34:33;;;;;;;5.80;3.58;;;15.80;55.80;15.10;102344.00;;;;5042673;28;20106;-69
2021/06/14 00:36:59;;;;;;;6.47;3.50;;;15.90;57.00;15.10;102350.00;;;;5038672;28;20041;-68
2021/06/14 00:39:24;;;;;;;6.97;3.70;;;15.80;56.40;15.10;102348.00;;;;5041294;28;20110;-68
2021/06/14 00:41:51;;;;;;;6.97;3.40;;;15.60;56.10;15.10;102346.00;;;;5040396;28;20555;-68
2021/06/14 00:44:17;;;;;;;9.63;4.00;;;15.80;57.30;15.00;102345.00;;;;5040747;28;20037;-68
2021/06/14 00:46:43;;;;;;;7.25;3.72;;;15.70;56.60;15.00;102346.00;;;;5035052;28;20163;-70
2021/06/14 00:49:10;;;;;;;4.90;3.70;;;15.70;57.80;14.90;102334.00;;;;5033452;28;20041;-69
2021/06/14 00:51:36;;;;;;;7.68;3.70;;;15.70;57.80;14.90;102344.00;;;;5038169;28;20646;-69
2021/06/14 00:54:04;;;;;;;9.20;4.05;;;16.30;58.30;14.90;102339.00;;;;5055655;28;20075;-68
2021/06/14 00:56:33;;;;;;;10.27;4.05;;;15.60;58.00;14.80;102331.00;;;;5039151;28;20403;-69
2021/06/14 00:58:59;;;;;;;5.93;3.30;;;15.60;58.30;14.80;102335.00;;;;5044053;28;20385;-69
2021/06/14 01:01:25;;;;;;;5.55;3.60;;;15.60;58.20;14.80;102331.00;;;;5039884;28;20106;-69
2021/06/14 01:03:54;;;;;;;8.48;3.90;;;15.50;58.20;14.80;102330.00;;;;5017687;28;20048;-69
2021/06/14 01:06:21;;;;;;;7.63;4.00;;;15.50;58.40;14.80;102317.00;;;;5023736;28;20033;-69
2021/06/14 01:08:52;;;;;;;6.03;3.28;;;15.50;57.60;14.70;102326.00;;;;5025716;28;20037;-71
2021/06/14 01:11:45;;;;;;;8.75;4.25;;;15.50;58.70;14.70;102318.00;;;;5052905;28;20045;-68
2021/06/14 01:15:00;;;;;;;7.78;3.20;;;15.50;59.00;14.70;102325.00;;;;5023456;28;20041;-69
2021/06/14 01:18:02;;;;;;;7.50;4.10;;;15.50;59.00;14.60;102316.00;;;;5024133;28;20040;-68
2021/06/14 01:20:56;;;;;;;5.20;3.72;;;15.40;59.10;14.60;102320.00;;;;5030738;28;20664;-68
2021/06/14 01:23:56;;;;;;;11.52;4.10;;;15.40;59.40;14.60;102316.00;;;;5038950;28;20056;-68
2021/06/14 01:26:23;;;;;;;8.70;3.85;;;15.40;60.00;14.60;102312.00;;;;5041757;28;20527;-69
2021/06/14 01:28:58;;;;;;;9.10;4.22;;;15.30;59.50;14.60;102298.00;;;;5041744;28;20048;-69
2021/06/14 01:31:30;;;;;;;7.03;3.85;;;15.30;59.80;14.60;102295.00;;;;5038091;28;20210;-68
2021/06/14 01:33:57;;;;;;;7.32;3.80;;;15.30;59.20;14.50;102284.00;;;;5038917;28;20395;-69
2021/06/14 01:36:32;;;;;;;8.45;4.45;;;15.30;59.90;14.50;102287.00;;;;5023949;28;20052;-68
2021/06/14 01:38:59;;;;;;;9.52;5.30;;;15.30;60.20;14.50;102294.00;;;;5033616;28;20037;-68
2021/06/14 01:41:27;;;;;;;7.68;4.80;;;15.30;60.50;14.50;102291.00;;;;5020495;28;20098;-70
2021/06/14 01:44:06;;;;;;;7.90;4.13;;;15.20;60.70;14.50;102285.00;;;;5026039;28;20537;-68
2021/06/14 01:46:39;;;;;;;8.13;4.32;;;15.20;60.60;14.50;102285.00;;;;5021195;28;20500;-69
2021/06/14 01:49:07;;;;;;;8.70;4.25;;;15.20;60.80;14.50;102281.00;;;;5040268;28;20064;-69
2021/06/14 01:51:38;;;;;;;6.88;3.53;;;15.20;60.70;14.50;102284.00;;;;5041284;28;20064;-68
2021/06/14 01:54:08;;;;;;;8.48;4.53;;;15.20;60.70;14.50;102279.00;;;;5019257;28;20045;-68
2021/06/14 01:56:55;;;;;;;9.52;4.68;;;15.20;61.10;14.50;102277.00;;;;5027071;28;20059;-69
2021/06/14 01:59:35;;;;;;;8.10;4.30;;;15.20;61.20;14.40;102279.00;;;;5026023;28;20056;-69
2021/06/14 02:02:08;;;;;;;8.77;4.53;;;15.20;61.20;14.50;102272.00;;;;5018624;28;20051;-68
2021/06/14 02:04:45;;;;;;;6.43;4.35;;;15.10;61.00;14.40;102260.00;;;;5040428;28;20192;-68
2021/06/14 02:07:20;;;;;;;;;;;15.20;61.20;14.30;102271.00;;;;5042716;28;20044;-68
2021/06/14 02:09:46;;;;;;;7.53;3.83;;;15.10;61.90;14.40;102268.00;;;;5022285;28;20002;-69
2021/06/14 02:12:14;;;;;;;7.78;4.88;;;15.10;61.00;14.40;102257.00;;;;5038390;28;20068;-69
2021/06/14 02:14:42;;;;;;;9.00;4.72;;;15.10;61.10;14.30;102249.00;;;;5050810;28;20511;-69
2021/06/14 02:17:15;;;;;;;7.90;4.22;;;15.10;61.20;14.30;102252.00;;;;5040341;28;20665;-68
2021/06/14 02:19:46;;;;;;;8.90;4.82;;;15.10;61.10;14.40;102239.00;;;;5042171;28;20097;-69
2021/06/14 02:22:15;;;;;;;8.15;4.75;;;15.10;61.60;14.40;102240.00;;;;5038534;28;20098;-68
2021/06/14 02:24:42;;;;;;;11.55;4.88;;;15.10;61.50;14.40;102236.00;;;;5040656;28;20072;-68
2021/06/14 02:27:12;;;;;;;11.75;4.60;;;15.10;61.40;14.40;102244.00;;;;5036857;28;20045;-68
2021/06/14 02:29:40;;;;;;;8.05;4.85;;;15.00;61.20;14.40;102240.00;;;;5023441;28;20111;-68
2021/06/14 02:32:07;;;;;;;8.93;4.72;;;15.00;61.10;14.40;102232.00;;;;5039386;28;20041;-68
2021/06/14 02:34:36;;;;;;;10.93;4.75;;;15.10;60.10;14.40;102225.00;;;;5021726;28;20116;-68
2021/06/14 02:37:04;;;;;;;8.50;4.55;;;15.10;61.00;14.50;102219.00;;;;5040429;28;20045;-68
2021/06/14 02:39:35;;;;;;;10.70;5.32;;;15.10;61.10;14.50;102228.00;;;;5037169;28;20049;-68
2021/06/14 02:42:04;;;;;;;11.48;4.75;;;15.10;61.10;14.50;102222.00;;;;5054632;28;20037;-68
2021/06/14 02:44:30;;;;;;;12.00;5.55;;;15.10;61.10;14.50;102219.00;;;;5041602;28;20044;-68
2021/06/14 02:47:06;;;;;;;11.80;5.13;;;15.20;61.20;14.50;102229.00;;;;5054721;28;20096;-68
2021/06/14 02:49:33;;;;;;;9.80;4.75;;;15.20;61.10;14.60;102212.00;;;;5033516;28;20141;-68
2021/06/14 02:52:04;;;;;;;13.90;5.07;;;15.20;61.00;14.60;102209.00;;;;5042292;28;20078;-68
2021/06/14 02:54:50;;;;;;;8.65;4.82;;;15.20;61.20;14.70;102217.00;;;;5022298;28;20534;-68
2021/06/14 02:57:17;;;;;;;14.77;5.45;;;15.30;61.00;14.70;102220.00;;;;5050087;28;20040;-69
2021/06/14 02:59:46;;;;;;;13.20;5.53;;;15.30;60.90;14.70;102217.00;;;;5033160;28;20076;-68
2021/06/14 03:02:15;;;;;;;15.27;5.32;;;15.30;61.10;14.80;102217.00;;;;5035376;28;20083;-69
2021/06/14 03:04:42;;;;;;;;;;;15.40;60.70;14.80;102206.00;;;;5027532;28;20053;-68
2021/06/14 03:07:08;;;;;;;10.15;4.85;;;15.40;62.00;14.90;102218.00;;;;5038615;28;20304;-68
2021/06/14 03:09:35;;;;;;;10.65;4.95;;;15.50;60.40;14.90;102216.00;;;;5044018;28;20045;-68
2021/06/14 03:12:03;;;;;;;10.70;5.03;;;15.50;60.10;14.90;102229.00;;;;5014444;28;20044;-68
2021/06/14 03:14:29;;;;;;;;;;;15.50;60.00;14.90;102217.00;;;;5031680;28;20041;-68
2021/06/14 03:16:57;;;;;;;9.30;5.25;;;15.50;60.70;14.90;102224.00;;;;5019196;28;20402;-68
2021/06/14 03:19:26;;;;;;;8.00;4.20;;;15.60;60.00;14.90;102217.00;;;;5037482;28;20059;-68
2021/06/14 03:21:59;;;;;;;10.50;4.68;;;15.60;60.00;14.90;102221.00;;;;5039007;28;20065;-68
2021/06/14 03:24:30;;;;;;;6.53;4.20;;;15.50;59.80;14.90;102217.00;;;;5034569;28;20793;-69
2021/06/14 03:26:58;;;;;;;10.18;4.50;;;15.60;60.20;14.90;102222.00;;;;5038584;28;20048;-69
2021/06/14 03:29:25;;;;;;;13.38;5.00;;;15.50;60.10;14.90;102225.00;;;;5034694;28;20056;-70
2021/06/14 03:31:52;;;;;;;12.90;4.57;;;15.60;60.50;14.90;102218.00;;;;5038491;28;20037;-69
2021/06/14 03:34:21;;;;;;;10.50;4.97;;;15.50;59.40;14.90;102225.00;;;;5020207;28;20083;-69
2021/06/14 03:36:47;;;;;;;11.07;5.03;;;16.00;60.70;14.90;102229.00;;;;5037202;28;20044;-69
2021/06/14 03:39:16;;;;;;;;;;;15.60;60.30;14.80;102217.00;;;;5031668;28;20048;-69
2021/06/14 03:41:47;;;;;;;10.32;4.90;;;15.60;61.00;14.90;102223.00;;;;5036001;28;19928;-69
2021/06/14 03:44:15;;;;;;;8.20;4.57;;;15.60;60.40;14.90;102227.00;;;;5037747;28;20044;-69
2021/06/14 03:46:41;;;;;;;7.47;4.82;;;15.60;60.50;14.90;102227.00;;;;5039270;28;20033;-69
2021/06/14 03:49:07;;;;;;;9.13;4.85;;;15.60;60.50;14.90;102220.00;;;;5041206;28;20095;-67
2021/06/14 03:51:34;;;;;;;10.37;5.10;;;15.60;60.60;14.90;102217.00;;;;5037939;28;20055;-67
2021/06/14 03:54:01;;;;;;;9.63;4.97;;;15.60;60.70;14.90;102223.00;;;;5033208;28;20318;-67
2021/06/14 03:56:31;;;;;;;7.80;4.72;;;15.60;60.80;14.90;102220.00;;;;5037423;28;20596;-67
2021/06/14 03:58:58;;;;;;;13.55;4.90;;;15.60;60.40;14.90;102214.00;;;;5039272;28;20738;-67
2021/06/14 04:01:25;;;;;;;;;;;15.60;60.80;14.90;102217.00;;;;5039130;28;20571;-66
2021/06/14 04:06:39;;;;;;;9.73;5.03;;;15.60;60.70;15.00;102217.00;;;;5033852;28;20563;-66
2021/06/14 04:09:06;;;;;;;11.47;5.40;;;15.60;60.80;15.00;102216.00;;;;5038966;28;20432;-67
2021/06/14 04:11:32;;;;;;;11.82;5.75;;;15.60;60.70;15.00;102210.00;;;;5030461;28;20047;-68
2021/06/14 04:13:58;;;;;;;8.10;4.85;;;15.60;60.80;15.00;102222.00;;;;5037658;28;20048;-67
2021/06/14 04:16:24;;;;;;;10.57;5.37;;;15.60;61.10;15.00;102220.00;;;;5039227;28;20322;-67
2021/06/14 04:18:50;;;;;;;12.30;4.80;;;15.70;60.80;15.10;102224.00;;;;5039953;28;20041;-67
2021/06/14 04:21:17;;;;;;;9.45;4.68;;;15.60;60.40;15.10;102225.00;;;;5039471;28;20345;-66
2021/06/14 04:23:43;;;;;;;9.23;5.05;;;15.70;60.90;15.10;102225.00;;;;5036971;28;20045;-67
2021/06/14 04:26:11;;;;;;;12.00;5.30;;;15.70;60.40;15.10;102225.00;;;;5035367;28;20045;-66
2021/06/14 04:28:39;;;;;;;9.30;4.85;;;15.70;61.10;15.10;102222.00;;;;5016722;28;20053;-67
2021/06/14 04:31:05;;;;;;;12.52;4.97;;;15.70;60.90;15.10;102211.00;;;;5038193;28;20037;-67
2021/06/14 04:33:31;;;;;;;14.87;5.33;;;15.80;60.50;15.20;102211.00;;;;5038347;28;20129;-68
2021/06/14 04:35:57;;;;;;;8.88;5.05;;;15.80;61.00;15.30;102202.00;;;;5039674;28;20128;-67
2021/06/14 04:38:22;;;;;;;13.43;5.38;;;15.80;61.30;15.30;102216.00;;;;5039723;28;20063;-67
2021/06/14 04:40:48;;;;;;;11.85;5.50;;;15.90;61.10;15.40;102201.00;;;;5038795;28;20045;-67
2021/06/14 04:43:14;;;;;;;11.50;5.65;;;16.00;61.20;15.50;102205.00;;;;5050821;28;20037;-67
2021/06/14 04:45:40;;;;;;;9.43;5.07;;;16.00;61.00;15.60;102207.00;;;;5032543;28;20037;-67
2021/06/14 04:48:06;;;;;;;10.60;5.75;;;16.10;60.90;15.70;102210.00;;;;5020393;28;20099;-68
2021/06/14 04:50:32;;;;;;;10.38;5.40;;;16.20;60.80;15.80;102212.00;;;;5039615;28;20045;-68
2021/06/14 04:52:58;;;;;;;9.45;5.07;;;16.30;61.00;15.90;102201.00;;;;5041124;28;20427;-68
2021/06/14 04:55:24;;;;;;;11.88;5.28;;;16.30;60.00;16.00;102200.00;;;;5040101;28;20045;-68
2021/06/14 04:57:50;;;;;;;14.35;5.80;;;16.40;61.20;16.10;102206.00;;;;5035928;28;20033;-68
2021/06/14 05:00:17;;;;;;;8.90;5.43;;;16.50;60.60;16.20;102198.00;;;;5037307;28;20064;-68
2021/06/14 05:02:43;;;;;;;12.05;5.75;;;16.60;59.60;16.30;102214.00;;;;5037522;28;20072;-69
2021/06/14 05:05:10;;;;;;;11.10;5.90;;;16.70;59.90;16.40;102214.00;;;;5035212;28;20036;-66
2021/06/14 05:07:36;;;;;;;10.40;5.60;;;16.80;60.30;16.50;102218.00;;;;5034319;28;20059;-66
2021/06/14 05:10:04;;;;;;;10.90;5.88;;;17.00;59.50;16.60;102212.00;;;;5037952;28;21062;-67
2021/06/14 05:12:29;;;;;;;;;;;17.00;59.30;16.70;102215.00;;;;5039487;28;20040;-67
2021/06/14 05:14:56;;;;;;;8.70;5.30;;;17.10;60.10;16.90;102216.00;;;;5033493;28;19928;-67
2021/06/14 05:17:21;;;;;;;8.27;5.22;;;17.30;58.60;17.00;102214.00;;;;5035592;28;20045;-67
2021/06/14 05:19:47;;;;;;;10.50;5.82;;;17.30;59.40;17.10;102219.00;;;;5034668;28;20079;-66
2021/06/14 05:22:14;;;;;;;16.45;6.18;;;17.40;59.30;17.20;102206.00;;;;5036428;28;20037;-67
2021/06/14 05:24:41;;;;;;;10.40;6.38;;;17.50;59.20;17.30;102201.00;;;;5019704;28;20644;-67
2021/06/14 05:27:08;;;;;;;11.80;6.20;;;17.70;58.10;17.40;102209.00;;;;5024704;28;20041;-67
2021/06/14 05:29:34;;;;;;;11.18;6.35;;;17.70;59.10;17.50;102215.00;;;;5039901;28;20117;-67
2021/06/14 05:32:00;;;;;;;12.18;6.35;;;17.80;59.00;17.60;102214.00;;;;5040573;28;20135;-67
2021/06/14 05:34:26;;;;;;;11.00;6.07;;;18.00;58.00;17.70;102218.00;;;;5037781;28;20485;-67
2021/06/14 05:36:52;;;;;;;12.77;6.18;;;18.00;58.90;17.80;102228.00;;;;5043667;28;20366;-68
2021/06/14 05:39:18;;;;;;;13.02;6.00;;;18.10;59.20;18.00;102241.00;;;;5045302;28;20124;-68
2021/06/14 05:41:44;;;;;;;12.23;6.43;;;18.30;58.90;18.10;102245.00;;;;5039623;28;20120;-68
2021/06/14 05:44:10;;;;;;;11.00;6.22;;;18.40;58.70;18.20;102246.00;;;;5037866;28;20032;-67
2021/06/14 05:46:36;;;;;;;13.90;6.65;;;18.50;58.50;18.30;102241.00;;;;5057584;28;20053;-67
2021/06/14 05:49:03;;;;;;;10.97;5.77;;;18.50;58.20;18.30;102245.00;;;;5038332;28;20045;-68
2021/06/14 05:51:30;;;;;;;14.70;6.93;;;18.60;58.10;18.50;102257.00;;;;5039786;28;20055;-67
2021/06/14 05:53:56;;;;;;;13.40;6.43;;;18.80;58.30;18.60;102244.00;;;;5046765;28;20060;-68
2021/06/14 05:56:23;;;;;;;11.73;6.35;;;18.80;57.70;18.60;102227.00;;;;5040292;28;20529;-68
2021/06/14 05:58:51;;;;;;;15.10;6.78;;;18.90;57.90;18.70;102232.00;;;;5042792;28;20053;-68
2021/06/14 06:01:17;;;;;;;11.85;7.10;;;19.00;58.00;18.80;102227.00;;;;5039910;28;20036;-68
2021/06/14 06:03:43;;;;;;;13.00;7.45;;;19.10;57.50;19.00;102227.00;;;;5018148;28;20041;-68
2021/06/14 06:06:10;;;;;;;13.40;6.45;;;19.20;57.60;19.10;102217.00;;;;5032314;28;20044;-68
2021/06/14 06:08:36;;;;;;;14.13;6.88;;;19.30;56.30;19.20;102223.00;;;;5038985;28;20487;-68
2021/06/14 06:11:03;;;;;;;10.77;6.82;;;19.50;55.70;19.30;102212.00;;;;5040331;28;20080;-68
2021/06/14 06:13:30;;;;;;;10.85;6.70;;;19.60;56.10;19.40;102208.00;;;;5040191;28;20048;-68
2021/06/14 06:15:56;;;;;;;13.68;6.97;;;19.60;56.80;19.50;102203.00;;;;5037652;28;20098;-68
2021/06/14 06:18:22;;;;;;;13.77;7.00;;;19.70;56.80;19.60;102211.00;;;;5018208;28;20145;-68
2021/06/14 06:20:48;;;;;;;11.20;6.75;;;19.80;56.80;19.70;102203.00;;;;5044972;28;20116;-68
2021/06/14 06:23:14;;;;;;;13.73;7.05;;;19.90;56.70;19.90;102197.00;;;;5041759;28;20036;-67
2021/06/14 06:25:40;;;;;;;11.15;5.90;;;20.00;56.20;20.00;102192.00;;;;5037800;28;20569;-68
2021/06/14 06:28:06;;;;;;;11.77;7.13;;;20.10;56.20;20.10;102191.00;;;;5033917;28;20641;-68
2021/06/14 06:30:36;;;;;;;15.35;6.90;;;20.20;56.00;20.20;102192.00;;;;5038848;28;20079;-68
2021/06/14 06:33:08;;;;;;;13.27;6.50;;;20.50;54.00;20.40;102191.00;;;;5040142;28;20130;-68
2021/06/14 06:35:34;;;;;;;12.70;6.45;;;20.50;55.40;20.50;102179.00;;;;5039071;28;20120;-68
2021/06/14 06:38:01;;;;;;;10.88;6.78;;;20.60;55.20;20.50;102192.00;;;;5039706;28;20033;-68
2021/06/14 06:40:28;;;;;;;11.88;6.05;;;20.70;55.00;20.60;102181.00;;;;5042133;28;20048;-68
2021/06/14 06:42:56;;;;;;;14.40;6.93;;;20.80;54.90;20.70;102173.00;;;;5041567;28;20053;-68
2021/06/14 06:45:23;;;;;;;9.27;5.85;;;20.90;54.40;20.70;102184.00;;;;5032470;28;20067;-68
2021/06/14 06:47:50;;;;;;;13.98;5.72;;;20.90;54.30;20.80;102180.00;;;;5039665;28;20095;-68
2021/06/14 06:50:17;;;;;;;16.00;6.80;;;21.00;54.90;20.90;102184.00;;;;5036179;28;20543;-69
2021/06/14 06:52:43;;;;;;;11.38;6.22;;;21.00;53.90;20.90;102189.00;;;;5055370;28;20064;-68
2021/06/14 06:55:12;;;;;;;14.23;6.07;;;21.10;53.90;21.00;102183.00;;;;5037070;28;20045;-68
2021/06/14 06:57:39;;;;;;;14.00;6.43;;;20.90;53.60;21.10;102180.00;;;;5039042;28;20049;-68
2021/06/14 07:00:10;;;;;;;8.35;5.85;;;21.20;53.60;21.20;102188.00;;;;5040529;28;20759;-68
2021/06/14 07:02:36;;;;;;;10.15;6.05;;;21.40;53.50;21.40;102184.00;;;;5042157;28;20569;-68
2021/06/14 07:05:03;;;;;;;13.40;6.28;;;21.50;53.40;21.60;102179.00;;;;5040688;28;20045;-69
2021/06/14 07:07:28;;;;;;;;;;;21.70;52.90;21.70;102166.00;;;;5039917;28;20071;-68
2021/06/14 07:09:55;;;;;;;11.90;6.88;;;21.80;53.00;21.80;102170.00;;;;5036849;28;19923;-68
2021/06/14 07:12:21;;;;;;;10.85;6.45;;;22.00;53.00;21.90;102162.00;;;;5037331;28;20041;-68
2021/06/14 07:14:46;;;;;;;10.50;5.97;;;22.00;52.60;22.10;102166.00;;;;5043550;28;20033;-67
2021/06/14 07:17:12;;;;;;;9.67;5.70;;;22.20;52.30;22.20;102171.00;;;;5058029;28;20095;-69
2021/06/14 07:19:38;;;;;;;17.88;6.65;;;22.30;53.90;22.40;102180.00;;;;5036919;28;20158;-68
2021/06/14 07:22:04;;;;;;;11.50;6.03;;;22.40;51.80;22.50;102172.00;;;;5039397;28;20132;-68
2021/06/14 07:24:30;;;;;;;12.07;6.37;;;22.50;51.30;22.60;102179.00;;;;5041163;28;20037;-68
2021/06/14 07:26:57;;;;;;;13.55;7.10;;;22.60;51.40;22.60;102177.00;;;;5016493;28;20033;-68
2021/06/14 07:29:23;;;;;;;11.63;6.50;;;22.70;51.00;22.70;102177.00;;;;5040324;28;20428;-68
2021/06/14 07:31:49;;;;;;;16.42;7.38;;;22.80;51.90;22.80;102172.00;;;;5035674;28;20060;-69
2021/06/14 07:34:15;;;;;;;13.60;6.47;;;22.90;49.20;23.00;102171.00;;;;5038482;28;20052;-69
2021/06/14 07:36:40;;;;;;;15.90;7.63;;;23.00;50.50;23.10;102173.00;;;;5037602;28;20045;-69
2021/06/14 07:39:07;;;;;;;15.30;7.53;;;23.20;50.60;23.20;102167.00;;;;5042016;28;20029;-68
2021/06/14 07:41:33;;;;;;;12.82;7.18;;;23.30;50.10;23.30;102165.00;;;;5048999;28;20518;-69
2021/06/14 07:43:59;;;;;;;15.40;7.20;;;23.40;49.40;23.40;102164.00;;;;5039963;28;20040;-69
2021/06/14 07:46:25;;;;;;;13.52;7.03;;;23.40;49.50;23.50;102146.00;;;;5037164;28;20045;-69
2021/06/14 07:48:51;;;;;;;15.00;7.47;;;23.60;49.50;23.70;102151.00;;;;5039300;28;20099;-69
2021/06/14 07:51:17;;;;;;;13.93;6.63;;;23.60;50.10;23.80;102137.00;;;;5039647;28;20850;-69
2021/06/14 07:53:49;;;;;;;12.87;7.13;;;23.80;48.90;23.90;102141.00;;;;5043057;28;20037;-69
2021/06/14 07:56:15;;;;;;;15.00;7.22;;;24.00;48.90;24.00;102139.00;;;;5040529;28;20285;-69
2021/06/14 07:58:41;;;;;;;12.50;7.78;;;24.10;48.00;24.00;102137.00;;;;5042797;28;20037;-69
2021/06/14 08:01:07;;;;;;;20.50;7.67;;;24.10;47.60;24.00;102137.00;;;;5041120;28;20045;-69
2021/06/14 08:03:33;;;;;;;16.95;7.00;;;24.10;47.80;24.10;102125.00;;;;5040655;28;20029;-69
2021/06/14 08:06:00;;;;;;;13.38;8.20;;;24.10;47.70;24.20;102120.00;;;;5037386;28;20569;-69
2021/06/14 08:08:26;;;;;;;;;;;24.30;47.40;24.20;102106.00;;;;5043419;28;20037;-68
2021/06/14 08:10:53;;;;;;;12.63;7.50;;;24.30;47.20;24.40;102105.00;;;;5041819;28;19921;-69
2021/06/14 08:13:19;;;;;;;18.42;8.13;;;24.50;47.10;24.50;102099.00;;;;5042773;28;20033;-69
2021/06/14 08:15:45;;;;;;;19.60;8.43;;;24.60;43.50;24.60;102100.00;;;;5039641;28;20037;-69
2021/06/14 08:26:26;;;;;;;20.08;8.55;;;25.00;44.00;25.10;102103.00;;;;5040141;28;20044;-69
2021/06/14 08:28:53;;;;;;;17.55;7.13;;;25.20;43.40;25.30;102106.00;;;;5056955;28;20025;-69
2021/06/14 08:31:20;;;;;;;13.32;7.97;;;25.20;44.80;25.30;102104.00;;;;5034905;28;20032;-69
2021/06/14 08:33:46;;;;;;;20.30;8.85;;;25.30;40.50;25.40;102108.00;;;;5041546;28;20073;-68
2021/06/14 08:36:13;;;;;;;16.10;8.48;;;25.40;44.40;25.40;102109.00;;;;5037376;28;20049;-68
2021/06/14 08:38:38;;;;;;;;;;;25.40;41.20;25.30;102112.00;;;;5058920;28;20041;-68
2021/06/14 08:41:05;;;;;;;14.55;6.70;;;25.40;41.10;25.50;102106.00;;;;5041411;28;19928;-68
2021/06/14 08:43:33;;;;;;;22.35;8.50;;;25.50;43.50;25.60;102102.00;;;;5052631;28;20573;-68
2021/06/14 08:45:59;;;;;;;16.15;7.72;;;25.60;43.00;25.70;102097.00;;;;5040094;28;20048;-68
2021/06/14 08:48:25;;;;;;;15.77;7.32;;;25.70;42.10;25.80;102093.00;;;;5040245;28;20041;-69
2021/06/14 08:50:53;;;;;;;14.85;7.50;;;25.80;42.30;26.00;102101.00;;;;5023482;28;20083;-68
2021/06/14 08:53:19;;;;;;;17.88;8.55;;;25.90;42.20;26.10;102102.00;;;;5044101;28;20482;-69
2021/06/14 08:55:47;;;;;;;;;;;26.10;41.90;26.00;102114.00;;;;5025599;28;20519;-69
2021/06/14 08:58:14;;;;;;;16.08;7.82;;;26.10;38.80;26.30;102101.00;;;;5025310;28;19929;-70
2021/06/14 09:00:40;;;;;;;12.98;7.35;;;26.20;40.90;26.40;102114.00;;;;5038268;28;20063;-69
2021/06/14 09:03:06;;;;;;;16.75;7.32;;;26.40;40.70;26.50;102107.00;;;;5042028;28;20036;-69
2021/06/14 09:05:32;;;;;;;16.60;7.15;;;26.50;40.30;26.60;102101.00;;;;5043956;28;20547;-68
2021/06/14 09:08:01;;;;;;;17.42;7.90;;;26.60;40.20;26.70;102102.00;;;;5045340;28;20126;-69
2021/06/14 09:10:35;;;;;;;21.02;8.25;;;26.70;39.60;26.70;102086.00;;;;5045635;28;20051;-69
2021/06/14 09:13:15;;;;;;;17.75;8.20;;;26.70;39.00;26.80;102086.00;;;;5029541;28;20132;-69
2021/06/14 09:15:44;;;;;;;16.40;8.25;;;26.90;38.40;26.90;102092.00;;;;5057425;28;20045;-69
2021/06/14 09:18:19;;;;;;;15.05;9.05;;;26.90;39.10;26.90;102090.00;;;;5035436;28;20041;-70
2021/06/14 09:21:09;;;;;;;16.15;8.60;;;27.00;39.10;27.00;102083.00;;;;5039344;28;20052;-71
2021/06/14 09:23:53;;;;;;;14.60;8.30;;;27.10;38.30;27.10;102086.00;;;;5045847;28;20145;-69
2021/06/14 09:26:36;;;;;;;18.70;8.30;;;27.10;36.80;27.30;102080.00;;;;5045042;28;20037;-68
2021/06/14 09:29:28;;;;;;;18.77;7.38;;;27.30;37.70;27.40;102085.00;;;;5043862;28;20098;-68
2021/06/14 09:32:02;;;;;;;14.02;7.03;;;27.50;35.20;27.50;102079.00;;;;5027877;28;20045;-68
2021/06/14 09:34:42;;;;;;;13.95;6.60;;;27.50;37.00;27.50;102082.00;;;;5044904;28;20064;-70
2021/06/14 09:37:11;;;;;;;11.20;6.13;;;27.60;36.10;27.60;102067.00;;;;5046742;28;20151;-69
2021/06/14 09:39:48;;;;;;;10.77;6.20;;;27.70;36.50;27.70;102070.00;;;;5040573;28;20106;-68
2021/06/14 09:42:16;;;;;;;14.85;6.22;;;27.80;36.30;27.80;102068.00;;;;5044074;28;20033;-69
2021/06/14 09:44:43;;;;;;;11.75;5.50;;;27.90;35.70;27.90;102078.00;;;;5043981;28;20049;-69
2021/06/14 09:47:11;;;;;;;13.25;5.07;;;27.90;36.10;27.90;102070.00;;;;5042497;28;20129;-69
2021/06/14 09:49:39;;;;;;;14.07;4.63;;;28.00;35.10;27.90;102075.00;;;;5044790;28;20041;-69
2021/06/14 09:52:12;;;;;;;12.35;4.70;;;27.90;34.70;27.90;102074.00;;;;5045379;28;20041;-70
2021/06/14 09:54:38;;;;;;;11.60;5.63;;;27.90;34.20;27.90;102081.00;;;;5039951;28;21251;-69
2021/06/14 09:57:07;;;;;;;9.43;4.63;;;28.00;34.40;28.00;102077.00;;;;5030006;28;20044;-70
2021/06/14 09:59:42;;;;;;;7.25;4.13;;;28.00;34.60;28.10;102078.00;;;;5046998;28;20068;-69
2021/06/14 10:02:17;;;;;;;15.95;5.60;;;28.10;34.30;28.10;102075.00;;;;5041021;28;20048;-70
2021/06/14 10:04:54;;;;;;;24.60;4.85;;;28.20;34.10;28.20;102068.00;;;;5029151;28;20120;-70
2021/06/14 10:07:21;;;;;;;13.73;5.13;;;28.30;34.20;28.20;102071.00;;;;5036397;28;20072;-70
2021/06/14 10:09:51;;;;;;;11.98;3.88;;;28.40;34.20;28.30;102075.00;;;;5040171;28;20469;-69
2021/06/14 10:12:27;;;;;;;9.63;3.80;;;28.40;31.80;28.40;102073.00;;;;5042464;28;20045;-70
2021/06/14 10:15:00;;;;;;;7.85;3.38;;;28.50;32.90;28.40;102077.00;;;;5043282;28;20036;-69
2021/06/14 10:17:41;;;;;;;10.45;4.20;;;28.50;32.40;28.40;102071.00;;;;5042607;28;20049;-70
2021/06/14 10:20:21;;;;;;;9.00;4.57;;;28.50;32.90;28.50;102070.00;;;;5041851;28;20114;-68
2021/06/14 10:22:49;;;;;;;10.60;5.88;;;28.60;32.70;28.60;102067.00;;;;5042729;28;20943;-70
2021/06/14 10:25:17;;;;;;;10.30;4.60;;;28.60;33.00;28.60;102068.00;;;;5042644;28;20422;-70
2021/06/14 10:27:44;;;;;;;14.35;4.65;;;28.70;33.20;28.70;102065.00;;;;5049618;28;20060;-71
2021/06/14 10:30:16;;;;;;;13.30;4.93;;;28.70;33.10;28.70;102062.00;;;;5027499;28;20041;-70
2021/06/14 10:32:44;;;;;;;6.75;4.07;;;28.80;33.10;28.80;102071.00;;;;5040565;28;20091;-69
2021/06/14 10:35:13;;;;;;;8.82;4.75;;;28.90;33.00;28.90;102060.00;;;;5038730;28;20044;-69
2021/06/14 10:37:45;;;;;;;10.98;4.68;;;29.00;32.80;29.00;102051.00;;;;5043299;28;20564;-69
2021/06/14 10:40:26;;;;;;;7.78;4.10;;;29.10;30.70;29.10;102058.00;;;;5038822;28;20047;-70
2021/06/14 10:42:57;;;;;;;10.65;4.57;;;29.20;32.80;29.20;102055.00;;;;5042177;28;20034;-71
2021/06/14 10:45:30;;;;;;;10.35;4.00;;;29.30;32.50;29.30;102052.00;;;;5039844;28;20041;-70
2021/06/14 10:47:58;;;;;;;14.73;4.32;;;29.40;33.00;29.40;102044.00;;;;5039782;28;20056;-70
2021/06/14 10:50:30;;;;;;;10.90;4.13;;;29.50;31.90;29.50;102055.00;;;;5028107;28;20037;-69
2021/06/14 10:52:56;;;;;;;11.10;4.45;;;29.50;31.90;29.60;102049.00;;;;5024100;28;20045;-70
2021/06/14 10:55:29;;;;;;;9.95;4.05;;;29.60;32.10;29.60;102044.00;;;;5042371;28;20379;-69
2021/06/14 10:57:56;;;;;;;8.27;3.55;;;29.70;31.80;29.70;102040.00;;;;5053310;28;20091;-71
2021/06/14 11:00:30;;;;;;;;;;;29.80;31.60;29.50;102034.00;;;;5040702;28;20033;-69
2021/06/14 11:03:05;;;;;;;10.70;4.25;;;29.70;31.30;29.60;102029.00;;;;5027020;28;20418;-69